Terminal Aerodrome Forecast
Issued by NWS

Home | Current Version | Previous Version | Text Only | Print | Product List | Glossary Off
Versions: 1 2 3 4 5 6 7 8 9 10 11

000
FTUS43 KIWX 271300 AAA
TAFSBN
TAF AMD
KSBN 271333Z 2714/2812 20012KT 4SM -DZ BR OVC004
     FM271600 21014G22KT 6SM BR OVC006
     FM271800 21014G22KT P6SM OVC012
     FM272000 24013G20KT 6SM -SHRA SCT015 OVC035
     FM280000 27010KT P6SM BKN025=

USA.gov is the U.S. government's official web portal to all federal, state and local government web resources and services.